EmailTwitter


Observations de surface / Europe / LIRF (16242)

Régions: Québec | Canada | États-Unis | Europe | France | UK | Ailleurs
Station
Affichage
Infos & localisation pour LIRF (16242) | Aide pour décoder les METARs

Observations prises le 2020-07-10 à 00H20 UTC (LIRF)

Température: 21.0 Celsius

Point de rosée: 19.0 Celsius

Humidité relative: 88%

Indice Humidex: 28.

Vents: Nord-ouest à 6 km/h ou 3 noeuds.

Pression au niveau moyen de la mer: 101.50 kilopascals.

Observation METAR:

LIRF 100020Z 33003KT CAVOK 21/19 Q1015 NOSIG=